Time;durP1;ratioP1;P1;durP2;ratioP2;P2;SDS_P1;SDS_P2;PMS_P1;PMS_P2;Temp;Humidity;BMP_temperature;BMP_pressure;BME280_temperature;BME280_humidity;BME280_pressure;Samples;Min_cycle;Max_cycle;Signal;HPM_P1;HPM_P2
2024/04/07 00:00:50;;;;;;;7.30;6.30;;;;;;;11.12;96.74;99836.80;107416;1257;60393;-74
2024/04/07 00:03:17;;;;;;;7.00;5.10;;;;;;;11.08;96.57;99836.77;107034;1253;60562;-76
2024/04/07 00:05:50;;;;;;;5.80;5.10;;;;;;;11.09;96.28;99845.09;107336;1256;72577;-77
2024/04/07 00:08:23;;;;;;;7.00;5.70;;;;;;;11.13;95.84;99853.88;107972;1252;70197;-75
2024/04/07 00:10:50;;;;;;;7.30;5.80;;;;;;;11.09;95.91;99863.70;108526;1253;71197;-74
2024/04/07 00:13:18;;;;;;;5.60;5.00;;;;;;;11.05;95.95;99859.95;108808;1253;61686;-76
2024/04/07 00:15:45;;;;;;;5.90;5.20;;;;;;;11.08;95.38;99855.66;108590;1253;60435;-76
2024/04/07 00:18:13;;;;;;;5.40;4.90;;;;;;;11.08;94.97;99849.52;108640;1253;72620;-76
2024/04/07 00:20:40;;;;;;;6.50;5.90;;;;;;;10.99;94.75;99855.23;108643;1253;68416;-77
2024/04/07 00:23:07;;;;;;;6.10;5.20;;;;;;;10.90;95.23;99856.63;108524;1253;74015;-76
2024/04/07 00:25:35;;;;;;;6.10;4.90;;;;;;;10.91;95.01;99861.64;108817;1253;62700;-78
2024/04/07 00:28:02;;;;;;;6.60;5.50;;;;;;;10.94;94.90;99866.20;108847;1253;58733;-78
2024/04/07 00:30:29;;;;;;;6.30;5.00;;;;;;;10.92;94.76;99869.95;108542;1253;72594;-76
2024/04/07 00:32:57;;;;;;;4.90;4.40;;;;;;;10.84;94.90;99873.31;108374;1252;70622;-77
2024/04/07 00:35:24;;;;;;;5.40;4.90;;;;;;;10.86;94.95;99885.05;108658;1253;71044;-77
2024/04/07 00:37:52;;;;;;;6.00;5.40;;;;;;;10.90;94.44;99902.89;108197;1253;60372;-78
2024/04/07 00:40:19;;;;;;;6.20;5.40;;;;;;;10.79;94.37;99910.23;108925;1253;58995;-78
2024/04/07 00:42:48;;;;;;;5.90;5.30;;;;;;;10.69;94.76;99917.36;109126;1251;72584;-75
2024/04/07 00:45:15;;;;;;;6.70;4.90;;;;;;;10.71;94.96;99920.98;108123;1253;68878;-78
2024/04/07 00:47:42;;;;;;;6.20;5.10;;;;;;;10.76;95.04;99920.45;108916;1253;71668;-76
2024/04/07 00:50:10;;;;;;;6.20;5.60;;;;;;;10.72;94.87;99915.20;108932;1253;58972;-74
2024/04/07 00:52:37;;;;;;;5.80;4.90;;;;;;;10.69;95.66;99913.92;108486;1258;60476;-77
2024/04/07 00:55:04;;;;;;;5.80;4.00;;;;;;;10.75;95.51;99916.99;108283;1253;71655;-76
2024/04/07 00:57:32;;;;;;;5.70;5.10;;;;;;;10.80;94.74;99918.96;108330;1253;68906;-75
2024/04/07 00:59:59;;;;;;;5.60;4.70;;;;;;;10.75;94.50;99921.98;107598;1253;71456;-77
2024/04/07 01:02:26;;;;;;;4.90;4.40;;;;;;;10.69;94.77;99921.52;107497;1255;60427;-78
2024/04/07 01:04:54;;;;;;;5.10;4.30;;;;;;;10.68;94.90;99924.50;106223;1256;60331;-76
2024/04/07 01:07:21;;;;;;;5.00;4.10;;;;;;;10.72;94.26;99929.55;105976;1253;73927;-75
2024/04/07 01:09:49;;;;;;;4.90;3.80;;;;;;;10.70;93.82;99925.02;106197;1253;69861;-78
2024/04/07 01:12:16;;;;;;;4.70;4.10;;;;;;;10.63;94.36;99927.48;106072;1253;72180;-75
2024/04/07 01:14:43;;;;;;;4.80;3.50;;;;;;;10.57;94.19;99926.92;106059;1253;62271;-75
2024/04/07 01:17:11;;;;;;;3.50;3.20;;;;;;;10.58;93.66;99933.27;106355;1253;60443;-76
2024/04/07 01:19:38;;;;;;;4.20;3.50;;;;;;;10.58;93.46;99934.95;106407;1253;73784;-76
2024/04/07 01:22:05;;;;;;;4.50;3.40;;;;;;;10.51;93.27;99944.16;105946;1253;70089;-76
2024/04/07 01:24:32;;;;;;;3.70;3.40;;;;;;;10.42;93.88;99946.69;106286;1253;70278;-77
2024/04/07 01:27:00;;;;;;;3.40;3.10;;;;;;;10.38;93.71;99947.27;106012;1253;61695;-76
2024/04/07 01:29:27;;;;;;;4.60;3.50;;;;;;;10.41;93.58;99953.91;106172;1253;60572;-77
2024/04/07 01:31:54;;;;;;;4.40;3.30;;;;;;;10.40;93.33;99960.01;106171;1253;72656;-75
2024/04/07 01:34:22;;;;;;;4.40;3.60;;;;;;;10.31;93.63;99963.48;106341;1253;70156;-76
2024/04/07 01:36:49;;;;;;;6.10;3.90;;;;;;;10.24;94.28;99961.29;106418;1253;70749;-73
2024/04/07 01:39:16;;;;;;;3.90;3.50;;;;;;;10.28;94.22;99957.60;106416;1253;60521;-75
2024/04/07 01:41:43;;;;;;;4.50;3.40;;;;;;;10.31;93.73;99957.27;106044;1253;60302;-75
2024/04/07 01:44:12;;;;;;;4.30;3.90;;;;;;;10.30;94.13;99955.98;106074;1253;72561;-73
2024/04/07 01:46:39;;;;;;;5.20;4.00;;;;;;;10.25;93.77;99960.19;106048;1253;69201;-77
2024/04/07 01:49:06;;;;;;;6.10;3.90;;;;;;;10.22;93.81;99957.28;106098;1257;72601;-74
2024/04/07 01:51:34;;;;;;;5.00;3.70;;;;;;;10.26;93.44;99960.39;105527;1253;62177;-76
2024/04/07 01:54:02;;;;;;;6.10;4.10;;;;;;;10.26;93.41;99956.38;105871;1258;60627;-76
2024/04/07 01:56:30;;;;;;;4.70;3.80;;;;;;;10.18;93.16;99955.92;106083;1253;72568;-74
2024/04/07 01:58:57;;;;;;;5.00;3.30;;;;;;;10.14;93.48;99962.04;106050;1252;70497;-73
2024/04/07 02:01:24;;;;;;;4.60;3.80;;;;;;;10.17;93.50;99960.77;106075;1253;73965;-75
2024/04/07 02:03:52;;;;;;;5.10;4.00;;;;;;;10.19;93.30;99961.00;106386;1253;62391;-73
2024/04/07 02:06:19;;;;;;;5.60;3.60;;;;;;;10.13;93.28;99966.25;106450;1258;60645;-74
2024/04/07 02:08:46;;;;;;;5.60;3.70;;;;;;;10.05;93.11;99967.93;105800;1254;72701;-75
2024/04/07 02:11:14;;;;;;;5.60;3.60;;;;;;;10.03;92.89;99968.77;105833;1259;70333;-75
2024/04/07 02:13:41;;;;;;;3.90;3.20;;;;;;;10.05;92.58;99973.61;106419;1253;72138;-75
2024/04/07 02:16:10;;;;;;;4.80;3.80;;;;;;;9.99;93.09;99978.47;106456;1257;60246;-76
2024/04/07 02:18:37;;;;;;;4.20;3.70;;;;;;;9.91;92.89;99982.66;107268;1253;60356;-77
2024/04/07 02:21:06;;;;;;;3.70;2.70;;;;;;;9.85;93.05;99986.39;108300;1253;71624;-80
2024/04/07 02:23:33;;;;;;;5.70;3.20;;;;;;;9.87;93.05;99981.21;107814;1253;69181;-77
2024/04/07 02:26:00;;;;;;;5.20;3.30;;;;;;;9.90;93.14;99979.58;107957;1253;71228;-77
2024/04/07 02:28:28;;;;;;;3.80;3.40;;;;;;;9.87;93.39;99983.45;107910;1253;58783;-77
2024/04/07 02:30:55;;;;;;;3.50;2.90;;;;;;;9.83;93.45;99985.68;107664;1253;58962;-76
2024/04/07 02:33:22;;;;;;;4.40;3.70;;;;;;;9.88;93.51;99985.05;107805;1253;72594;-77
2024/04/07 02:35:50;;;;;;;3.60;3.30;;;;;;;9.93;92.91;99979.95;107950;1257;69950;-78
2024/04/07 02:38:17;;;;;;;6.00;3.70;;;;;;;9.89;92.87;99982.50;107916;1253;71608;-76
2024/04/07 02:40:45;;;;;;;4.40;3.70;;;;;;;9.82;93.15;99985.14;107345;1253;60322;-75
2024/04/07 02:43:12;;;;;;;4.40;3.50;;;;;;;9.78;93.00;99986.11;107587;1253;60259;-77
2024/04/07 02:48:26;;;;;;;3.50;3.20;;;;;;;9.83;93.12;99985.55;107413;1253;70029;-77
2024/04/07 02:50:54;;;;;;;4.30;3.40;;;;;;;9.75;93.08;99996.11;107235;1253;72874;-77
2024/04/07 02:53:22;;;;;;;4.10;3.30;;;;;;;9.64;93.47;99995.38;107154;1251;61797;-74
2024/04/07 02:55:49;;;;;;;3.40;3.10;;;;;;;9.66;93.11;99994.04;107362;1253;60365;-75
2024/04/07 02:58:16;;;;;;;4.40;3.60;;;;;;;9.68;93.23;99998.98;106811;1257;74204;-77
2024/04/07 03:00:44;;;;;;;5.60;4.10;;;;;;;9.62;93.15;99994.94;106818;1257;70097;-74
2024/04/07 03:03:11;;;;;;;3.80;3.30;;;;;;;9.56;93.34;99993.30;106596;1256;72734;-75
2024/04/07 03:05:38;;;;;;;4.30;3.40;;;;;;;9.51;94.11;99996.09;106829;1254;60536;-75
2024/04/07 03:08:06;;;;;;;4.50;3.30;;;;;;;9.52;94.04;100001.73;107078;1256;61417;-77
2024/04/07 03:10:33;;;;;;;5.90;3.30;;;;;;;9.55;93.68;100007.98;107052;1253;74642;-75
2024/04/07 03:13:00;;;;;;;3.70;3.40;;;;;;;9.48;93.89;100006.61;106972;1253;69040;-73
2024/04/07 03:15:30;;;;;;;4.50;3.50;;;;;;;9.37;94.40;100014.61;106364;1253;71582;-74
2024/04/07 03:17:57;;;;;;;3.90;3.20;;;;;;;9.27;94.48;100014.92;106961;1253;62695;-73
2024/04/07 03:20:25;;;;;;;3.70;3.40;;;;;;;9.24;94.10;100014.08;106515;1257;61209;-75
2024/04/07 03:22:52;;;;;;;4.10;3.40;;;;;;;9.25;94.53;100020.73;106342;1252;72429;-74
2024/04/07 03:25:20;;;;;;;5.40;4.20;;;;;;;9.22;95.29;100025.08;106470;1253;69922;-72
2024/04/07 03:27:47;;;;;;;6.90;5.80;;;;;;;9.19;95.79;100023.80;106306;1253;72637;-74
2024/04/07 03:30:14;;;;;;;8.30;6.60;;;;;;;9.17;95.81;100026.66;106200;1253;61919;-74
2024/04/07 03:32:41;;;;;;;6.70;5.70;;;;;;;9.20;95.63;100032.39;105987;1253;61413;-78
2024/04/07 03:35:09;;;;;;;6.40;5.80;;;;;;;9.17;95.73;100036.32;105939;1259;74724;-77
2024/04/07 03:37:36;;;;;;;7.10;6.40;;;;;;;9.11;95.95;100043.73;106053;1253;68036;-77
2024/04/07 03:40:04;;;;;;;7.60;5.80;;;;;;;9.04;95.88;100051.83;105819;1253;72588;-76
2024/04/07 03:42:31;;;;;;;5.30;4.80;;;;;;;9.04;96.02;100061.11;106038;1252;61678;-78
2024/04/07 03:44:58;;;;;;;5.40;4.90;;;;;;;9.04;96.17;100064.29;106131;1253;61364;-78
2024/04/07 03:47:25;;;;;;;6.60;5.10;;;;;;;8.99;96.48;100067.45;106349;1257;73416;-76
2024/04/07 03:49:53;;;;;;;5.20;4.20;;;;;;;8.92;96.88;100074.66;106098;1260;71335;-75
2024/04/07 03:52:20;;;;;;;4.40;3.90;;;;;;;8.95;97.01;100080.42;106660;1253;72616;-78
2024/04/07 03:54:48;;;;;;;4.90;4.50;;;;;;;9.01;97.14;100081.42;105992;1253;61304;-78
2024/04/07 03:57:15;;;;;;;4.50;4.10;;;;;;;9.01;97.34;100085.08;105853;1253;61297;-78
2024/04/07 03:59:43;;;;;;;4.90;3.80;;;;;;;9.00;97.86;100088.23;106091;1253;74912;-81
2024/04/07 04:02:10;;;;;;;5.60;3.70;;;;;;;9.06;97.83;100087.30;106141;1257;70059;-79
2024/04/07 04:04:37;;;;;;;5.00;4.20;;;;;;;9.15;98.01;100088.54;106033;1253;70797;-78
2024/04/07 04:07:04;;;;;;;6.80;3.80;;;;;;;9.19;98.19;100098.06;105953;1257;61731;-76
2024/04/07 04:09:32;;;;;;;6.50;3.80;;;;;;;9.31;99.28;100099.70;106052;1253;61266;-78
2024/04/07 04:11:59;;;;;;;4.10;3.50;;;;;;;9.48;98.61;100099.13;106522;1253;74666;-76
2024/04/07 04:14:26;;;;;;;4.10;3.50;;;;;;;9.62;98.20;100102.96;106410;1253;68890;-79
2024/04/07 04:16:53;;;;;;;10.00;4.50;;;;;;;9.71;98.52;100107.59;105841;1253;71374;-78
2024/04/07 04:19:21;;;;;;;4.70;4.20;;;;;;;9.75;98.08;100107.17;106038;1253;61179;-79
2024/04/07 04:21:48;;;;;;;4.00;3.30;;;;;;;9.85;97.65;100104.80;107460;1258;61199;-78
2024/04/07 04:24:16;;;;;;;5.00;3.70;;;;;;;10.01;97.53;100105.64;107585;1253;73423;-80
2024/04/07 04:26:43;;;;;;;3.90;3.50;;;;;;;10.07;96.92;100104.52;105982;1258;69962;-75
2024/04/07 04:29:13;;;;;;;4.80;3.50;;;;;;;10.10;96.90;100106.27;106080;1253;72554;-78
2024/04/07 04:31:40;;;;;;;4.10;3.60;;;;;;;10.13;96.85;100110.10;106132;1253;62026;-77
2024/04/07 04:34:07;;;;;;;4.20;3.50;;;;;;;10.23;96.44;100113.31;105907;1253;61226;-77
2024/04/07 04:36:35;;;;;;;4.30;3.30;;;;;;;10.30;95.65;100115.23;106004;1257;73590;-78
2024/04/07 04:39:02;;;;;;;5.90;3.30;;;;;;;10.33;95.79;100120.50;106140;1253;70163;-75
2024/04/07 04:41:30;;;;;;;4.20;3.80;;;;;;;10.33;95.90;100129.11;105899;1254;72660;-78
2024/04/07 04:43:57;;;;;;;4.10;3.30;;;;;;;10.33;95.78;100132.36;105823;1258;61247;-76
2024/04/07 04:46:26;;;;;;;6.70;3.80;;;;;;;10.39;95.27;100141.46;105861;1253;61527;-77
2024/04/07 04:48:53;;;;;;;4.10;3.50;;;;;;;10.45;94.52;100146.51;105806;1258;74672;-77
2024/04/07 04:51:20;;;;;;;6.80;4.40;;;;;;;10.48;94.76;100151.94;105949;1253;68814;-76
2024/04/07 04:53:48;;;;;;;5.10;3.90;;;;;;;10.52;95.68;100157.28;106093;1256;72972;-78
2024/04/07 04:56:15;;;;;;;5.70;4.00;;;;;;;10.61;95.35;100162.73;106429;1253;61965;-76
2024/04/07 04:58:42;;;;;;;4.30;3.40;;;;;;;10.71;94.44;100168.48;107519;1253;61218;-76
2024/04/07 05:01:11;;;;;;;5.40;3.40;;;;;;;10.77;93.11;100167.52;107616;1253;73401;-80
2024/04/07 05:03:38;;;;;;;4.30;3.20;;;;;;;10.72;92.81;100168.17;107907;1253;70249;-79
2024/04/07 05:06:10;;;;;;;3.50;3.00;;;;;;;10.70;92.85;100170.17;108580;1253;71512;-79
2024/04/07 05:08:42;;;;;;;5.40;3.20;;;;;;;10.75;92.56;100175.27;109035;1253;60524;-78
2024/04/07 05:11:10;;;;;;;4.20;3.30;;;;;;;10.85;93.18;100182.63;108854;1253;58756;-76
2024/04/07 05:13:37;;;;;;;4.80;3.50;;;;;;;10.91;93.02;100185.51;108631;1254;72245;-78
2024/04/07 05:16:05;;;;;;;3.60;2.90;;;;;;;10.98;93.04;100184.77;108034;1253;70749;-77
2024/04/07 05:18:32;;;;;;;6.10;3.60;;;;;;;11.09;92.15;100192.17;107070;1253;73486;-78
2024/04/07 05:21:04;;;;;;;5.40;3.20;;;;;;;11.18;91.99;100189.04;106247;1258;61396;-78
2024/04/07 05:23:33;;;;;;;6.10;3.80;;;;;;;11.16;91.27;100186.96;107409;1258;60044;-75
2024/04/07 05:26:10;;;;;;;5.50;3.70;;;;;;;11.17;91.70;100193.15;106296;1259;73477;-76
2024/04/07 05:28:38;;;;;;;4.60;4.00;;;;;;;11.28;91.59;100195.56;105993;1253;70141;-78
2024/04/07 05:31:10;;;;;;;8.20;4.00;;;;;;;11.37;91.64;100195.73;106006;1258;72685;-77
2024/04/07 05:33:45;;;;;;;4.70;3.90;;;;;;;11.45;91.89;100196.92;105775;1253;61293;-75
2024/04/07 05:36:12;;;;;;;5.70;3.60;;;;;;;11.56;92.11;100200.73;106106;1252;61180;-77
2024/04/07 05:38:40;;;;;;;4.90;3.20;;;;;;;11.71;91.56;100198.56;105984;1253;73549;-77
2024/04/07 05:41:07;;;;;;;4.20;3.50;;;;;;;11.85;91.22;100200.05;106030;1252;70702;-75
2024/04/07 05:43:35;;;;;;;4.70;4.00;;;;;;;11.91;90.41;100195.39;106187;1254;71655;-74
2024/04/07 05:46:07;;;;;;;4.50;3.30;;;;;;;11.94;90.28;100196.82;106046;1252;61615;-77
2024/04/07 05:48:35;;;;;;;6.20;3.30;;;;;;;12.05;89.80;100204.92;105796;1260;61219;-77
2024/04/07 05:51:05;;;;;;;3.90;3.50;;;;;;;12.12;88.91;100207.52;105858;1253;73593;-77
2024/04/07 05:53:32;;;;;;;6.60;3.90;;;;;;;12.12;88.83;100210.17;106026;1253;69091;-76
2024/04/07 05:55:59;;;;;;;5.00;3.10;;;;;;;12.15;89.04;100213.04;105982;1258;72665;-76
2024/04/07 05:58:27;;;;;;;5.50;3.60;;;;;;;12.29;88.80;100216.40;106062;1253;61189;-75
2024/04/07 06:00:54;;;;;;;7.40;3.70;;;;;;;12.41;88.40;100221.29;106061;1253;61334;-75
2024/04/07 06:03:22;;;;;;;6.40;4.10;;;;;;;12.44;87.62;100225.02;106112;1259;76578;-79
2024/04/07 06:05:49;;;;;;;7.80;3.90;;;;;;;12.46;87.51;100220.88;106272;1253;69214;-79
2024/04/07 06:08:17;;;;;;;4.80;3.40;;;;;;;12.56;87.43;100214.50;106583;1253;72600;-77
2024/04/07 06:10:44;;;;;;;5.60;3.50;;;;;;;12.65;86.96;100217.91;106075;1261;61360;-76
2024/04/07 06:13:11;;;;;;;6.00;4.30;;;;;;;12.67;86.75;100218.07;105923;1253;61122;-80
2024/04/07 06:15:42;;;;;;;4.40;3.70;;;;;;;12.70;86.55;100219.86;106584;1253;73012;-78
2024/04/07 06:18:10;;;;;;;5.40;3.90;;;;;;;12.78;85.94;100226.04;109094;1252;68834;-78
2024/04/07 06:20:37;;;;;;;5.00;4.10;;;;;;;12.87;85.64;100227.26;108805;1258;70097;-77
2024/04/07 06:23:05;;;;;;;5.30;4.00;;;;;;;12.93;85.96;100231.46;106641;1253;61317;-79
2024/04/07 06:25:32;;;;;;;4.40;3.30;;;;;;;13.00;85.53;100234.28;106812;1252;61143;-78
2024/04/07 06:27:59;;;;;;;5.60;3.80;;;;;;;13.14;85.54;100234.59;106473;1258;74698;-79
2024/04/07 06:30:27;;;;;;;5.80;4.70;;;;;;;13.29;85.06;100235.45;106359;1253;70155;-78
2024/04/07 06:32:55;;;;;;;6.20;4.10;;;;;;;13.36;84.65;100244.50;106205;1253;72675;-76
2024/04/07 06:35:22;;;;;;;6.50;3.90;;;;;;;13.40;84.22;100247.75;105970;1256;61686;-79
2024/04/07 06:37:49;;;;;;;6.80;4.50;;;;;;;13.52;83.84;100246.59;106300;1253;61331;-81
2024/04/07 06:40:17;;;;;;;6.10;4.60;;;;;;;13.67;83.69;100254.34;105961;1253;73689;-77
2024/04/07 06:42:44;;;;;;;5.10;4.60;;;;;;;13.77;83.70;100259.38;106102;1253;70114;-77
2024/04/07 06:45:12;;;;;;;6.30;4.40;;;;;;;13.89;83.68;100263.86;105942;1259;72005;-77
2024/04/07 06:47:40;;;;;;;5.10;4.20;;;;;;;14.04;84.04;100266.98;106138;1253;61568;-76
2024/04/07 06:50:08;;;;;;;7.10;4.50;;;;;;;14.22;82.61;100272.34;106124;1259;61224;-75
2024/04/07 06:52:35;;;;;;;9.80;5.10;;;;;;;14.35;82.04;100275.52;106076;1253;73404;-77
2024/04/07 06:55:05;;;;;;;5.70;4.80;;;;;;;14.39;80.91;100271.61;105960;1253;69977;-79
2024/04/07 06:57:33;;;;;;;5.20;4.60;;;;;;;14.42;80.88;100270.66;106090;1259;71469;-77
2024/04/07 07:00:00;;;;;;;6.70;4.00;;;;;;;14.47;80.87;100267.84;106054;1257;62658;-75
2024/04/07 07:02:27;;;;;;;8.20;4.90;;;;;;;14.59;80.44;100266.28;106121;1259;61177;-77
2024/04/07 07:04:55;;;;;;;5.00;4.50;;;;;;;14.68;79.63;100267.05;106151;1255;74735;-77
2024/04/07 07:07:22;;;;;;;7.20;4.70;;;;;;;14.67;79.26;100268.85;106514;1253;68985;-74
2024/04/07 07:09:49;;;;;;;7.00;4.60;;;;;;;14.67;79.21;100269.34;106762;1253;72879;-79
2024/04/07 07:12:17;;;;;;;8.50;4.70;;;;;;;14.66;78.55;100271.20;106822;1253;61154;-77
2024/04/07 07:14:44;;;;;;;6.10;4.80;;;;;;;14.72;78.14;100270.32;106792;1258;61251;-76
2024/04/07 07:17:12;;;;;;;6.50;4.90;;;;;;;14.73;78.13;100273.20;106913;1253;74636;-78
2024/04/07 07:19:39;;;;;;;6.50;4.40;;;;;;;14.70;77.42;100275.88;106261;1253;71483;-76
2024/04/07 07:22:06;;;;;;;4.90;4.20;;;;;;;14.65;77.11;100284.28;105925;1259;71348;-76
2024/04/07 07:24:34;;;;;;;5.50;3.60;;;;;;;14.64;77.13;100285.29;106057;1258;61212;-76
2024/04/07 07:27:02;;;;;;;4.70;3.00;;;;;;;14.71;76.94;100283.09;106277;1259;60102;-75
2024/04/07 07:29:29;;;;;;;5.60;3.20;;;;;;;14.76;76.51;100280.70;107080;1257;74641;-77
2024/04/07 07:31:57;;;;;;;4.60;3.10;;;;;;;14.77;76.05;100279.33;107807;1255;68881;-76
2024/04/07 07:34:24;;;;;;;4.90;3.00;;;;;;;14.80;75.38;100278.13;106246;1261;71222;-78
2024/04/07 07:36:52;;;;;;;4.20;3.10;;;;;;;14.80;74.59;100278.30;106529;1254;61195;-77
2024/04/07 07:39:20;;;;;;;4.80;3.90;;;;;;;14.81;74.49;100285.98;106399;1252;61279;-78
2024/04/07 07:41:47;;;;;;;4.70;3.90;;;;;;;14.91;74.42;100293.52;106398;1253;74614;-78
2024/04/07 07:44:15;;;;;;;6.50;4.70;;;;;;;14.98;73.89;100300.54;106261;1254;70459;-77
2024/04/07 07:46:42;;;;;;;5.70;4.20;;;;;;;14.97;73.38;100304.27;106412;1254;72776;-76
2024/04/07 07:49:10;;;;;;;5.20;3.80;;;;;;;14.95;73.06;100307.54;106231;1257;61241;-76
2024/04/07 07:51:37;;;;;;;6.40;3.90;;;;;;;14.94;73.23;100311.16;106229;1253;61326;-77
2024/04/07 07:54:05;;;;;;;4.80;3.80;;;;;;;14.96;73.37;100310.31;106065;1258;74914;-78
2024/04/07 07:56:32;;;;;;;5.60;4.10;;;;;;;15.03;73.12;100307.77;106227;1257;69005;-78
2024/04/07 07:58:59;;;;;;;4.70;3.50;;;;;;;15.10;72.85;100310.11;106115;1259;70487;-76
2024/04/07 08:01:27;;;;;;;4.60;3.80;;;;;;;15.13;73.21;100311.71;106262;1253;61234;-77
2024/04/07 08:03:54;;;;;;;4.90;3.90;;;;;;;15.16;73.18;100312.70;106194;1253;62232;-77
2024/04/07 08:06:22;;;;;;;5.30;4.20;;;;;;;15.20;72.78;100310.78;106420;1253;73325;-77
2024/04/07 08:08:49;;;;;;;7.80;4.50;;;;;;;15.26;72.36;100313.61;107847;1254;68585;-77
2024/04/07 08:11:16;;;;;;;5.10;3.70;;;;;;;15.33;72.15;100314.73;107329;1261;73575;-77
2024/04/07 08:13:44;;;;;;;6.00;4.10;;;;;;;15.48;72.07;100314.20;106361;1256;63389;-77
2024/04/07 08:16:11;;;;;;;4.50;3.80;;;;;;;15.59;71.67;100314.29;106081;1253;61215;-75
2024/04/07 08:18:40;;;;;;;7.20;4.20;;;;;;;15.67;71.25;100314.94;105900;1255;73387;-77
2024/04/07 08:21:07;;;;;;;5.50;3.40;;;;;;;15.76;70.04;100315.48;106062;1254;70443;-76
2024/04/07 08:23:35;;;;;;;6.00;3.30;;;;;;;15.80;67.77;100317.07;106180;1256;72875;-76
2024/04/07 08:26:03;;;;;;;6.20;3.10;;;;;;;15.81;67.46;100315.05;106655;1256;61062;-76
2024/04/07 08:28:32;;;;;;;4.40;3.00;;;;;;;15.84;67.92;100314.80;106458;1254;61232;-78
2024/04/07 08:31:01;;;;;;;6.10;3.70;;;;;;;15.95;68.19;100318.48;106511;1252;73323;-78
2024/04/07 08:33:28;;;;;;;5.50;3.10;;;;;;;16.11;67.26;100318.98;106460;1257;70686;-76
2024/04/07 08:35:57;;;;;;;4.50;3.00;;;;;;;16.25;66.71;100313.83;106287;1259;73266;-77
2024/04/07 08:38:24;;;;;;;4.50;3.60;;;;;;;16.36;66.78;100310.77;106505;1255;61410;-76
2024/04/07 08:40:52;;;;;;;6.90;4.10;;;;;;;16.40;66.95;100307.41;106216;1254;61201;-76
2024/04/07 08:43:19;;;;;;;4.10;3.70;;;;;;;16.44;67.15;100306.46;106266;1253;73536;-76
2024/04/07 08:45:48;;;;;;;6.90;3.50;;;;;;;16.56;67.72;100303.09;106725;1258;69027;-73
2024/04/07 08:48:17;;;;;;;5.20;3.20;;;;;;;16.73;67.85;100298.55;106390;1259;73276;-76
2024/04/07 08:50:47;;;;;;;5.50;3.10;;;;;;;17.00;67.44;100302.45;106270;1254;61221;-76
2024/04/07 08:53:15;;;;;;;4.10;3.20;;;;;;;17.30;66.63;100304.38;106495;1256;61143;-74
2024/04/07 08:55:42;;;;;;;4.00;3.10;;;;;;;17.50;65.57;100308.61;106201;1257;74703;-75
2024/04/07 08:58:10;;;;;;;5.00;3.00;;;;;;;17.63;64.56;100304.91;106249;1253;70147;-76
2024/04/07 09:00:38;;;;;;;5.60;2.90;;;;;;;17.72;63.77;100306.11;106187;1259;73458;-75
2024/04/07 09:03:06;;;;;;;4.00;3.10;;;;;;;17.85;64.13;100301.73;107376;1253;61203;-76
2024/04/07 09:05:33;;;;;;;5.30;3.00;;;;;;;18.11;64.37;100308.56;107761;1257;61199;-76
2024/04/07 09:08:01;;;;;;;4.70;3.20;;;;;;;18.50;63.75;100304.75;106934;1253;73628;-75
2024/04/07 09:10:28;;;;;;;5.10;3.00;;;;;;;19.02;64.02;100310.84;106413;1261;71057;-73
2024/04/07 09:12:58;;;;;;;6.70;2.90;;;;;;;19.50;61.52;100314.16;106027;1258;71474;-77
2024/04/07 09:15:25;;;;;;;4.90;3.10;;;;;;;19.66;58.04;100318.40;106110;1258;61237;-76
2024/04/07 09:17:53;;;;;;;4.10;3.20;;;;;;;19.57;58.79;100327.19;106049;1258;61227;-74
2024/04/07 09:20:21;;;;;;;3.30;2.40;;;;;;;19.47;58.17;100331.99;106147;1258;73328;-76
2024/04/07 09:22:49;;;;;;;5.40;3.70;;;;;;;19.24;57.19;100336.23;106114;1257;72499;-76
2024/04/07 09:25:17;;;;;;;4.20;3.20;;;;;;;18.95;58.31;100335.88;106300;1257;72738;-76
2024/04/07 09:27:45;;;;;;;3.80;2.40;;;;;;;18.77;58.88;100333.71;106151;1259;61264;-77
2024/04/07 09:30:13;;;;;;;4.60;2.70;;;;;;;18.61;58.80;100333.13;106407;1257;61340;-75
2024/04/07 09:32:41;;;;;;;4.10;2.60;;;;;;;18.49;59.19;100331.30;106472;1253;73470;-77
2024/04/07 09:35:09;;;;;;;4.50;2.70;;;;;;;18.56;59.05;100328.67;106606;1258;70218;-77
2024/04/07 09:37:40;;;;;;;3.60;2.40;;;;;;;18.74;58.69;100333.33;106343;1253;73005;-75
2024/04/07 09:40:08;;;;;;;4.90;3.00;;;;;;;18.91;57.94;100341.50;106365;1254;61329;-77
2024/04/07 09:42:37;;;;;;;3.90;3.00;;;;;;;18.96;58.13;100340.48;106414;1259;61430;-77
2024/04/07 09:45:06;;;;;;;4.40;2.70;;;;;;;18.99;57.78;100341.37;106389;1259;76464;-74
2024/04/07 09:47:38;;;;;;;3.80;2.10;;;;;;;18.92;56.31;100344.87;106274;1257;69483;-75
2024/04/07 09:50:18;;;;;;;3.10;2.10;;;;;;;18.73;55.84;100350.02;106201;1257;74882;-76
2024/04/07 09:52:50;;;;;;;5.40;2.40;;;;;;;18.47;56.46;100348.17;106145;1254;61328;-76
2024/04/07 09:55:17;;;;;;;5.40;2.60;;;;;;;18.34;57.10;100356.06;106117;1259;61166;-76
2024/04/07 09:57:44;;;;;;;4.20;2.20;;;;;;;18.34;57.48;100357.48;106437;1260;74628;-75
2024/04/07 10:00:12;;;;;;;5.40;3.10;;;;;;;18.59;57.70;100351.95;106626;1253;69351;-74
2024/04/07 10:02:40;;;;;;;4.60;2.40;;;;;;;19.14;57.61;100356.23;106592;1259;71435;-77
2024/04/07 10:05:07;;;;;;;4.50;2.50;;;;;;;19.97;58.12;100354.96;106190;1257;61264;-77
2024/04/07 10:07:35;;;;;;;4.50;3.00;;;;;;;20.92;56.84;100350.34;107201;1251;61316;-77
2024/04/07 10:10:02;;;;;;;4.10;2.20;;;;;;;21.92;54.84;100345.89;106813;1260;76612;-76
2024/04/07 10:12:30;;;;;;;3.80;2.80;;;;;;;22.87;52.46;100339.91;106608;1258;70394;-76
2024/04/07 10:14:59;;;;;;;4.50;2.60;;;;;;;23.77;50.86;100336.57;106557;1260;72066;-76
2024/04/07 10:17:27;;;;;;;2.90;2.60;;;;;;;24.64;50.13;100335.30;106170;1259;61246;-75
2024/04/07 10:19:54;;;;;;;3.30;2.40;;;;;;;25.37;47.15;100334.77;106188;1254;61440;-74
2024/04/07 10:22:21;;;;;;;5.40;2.60;;;;;;;25.63;44.48;100340.30;106006;1259;74725;-76
2024/04/07 10:24:52;;;;;;;3.70;2.60;;;;;;;25.47;44.16;100343.48;106218;1257;69086;-75
2024/04/07 10:27:24;;;;;;;6.20;2.60;;;;;;;25.15;44.24;100344.75;106475;1259;71896;-74
2024/04/07 10:29:55;;;;;;;4.30;2.60;;;;;;;24.80;43.59;100347.16;106116;1260;61404;-73
2024/04/07 10:32:27;;;;;;;3.30;2.30;;;;;;;24.22;44.30;100346.63;106062;1257;63688;-75
2024/04/07 10:34:58;;;;;;;3.30;2.30;;;;;;;23.66;44.80;100350.73;106369;1259;74954;-76
2024/04/07 10:37:26;;;;;;;3.20;2.30;;;;;;;23.16;45.64;100353.51;105908;1257;70880;-74
2024/04/07 10:39:55;;;;;;;4.00;2.40;;;;;;;22.87;46.27;100351.11;105960;1259;72762;-76
2024/04/07 10:42:22;;;;;;;2.70;2.50;;;;;;;22.77;47.54;100353.17;106164;1267;61157;-74
2024/04/07 10:44:50;;;;;;;6.40;2.60;;;;;;;23.08;47.60;100349.19;105811;1262;61248;-76
2024/04/07 10:47:17;;;;;;;4.80;3.00;;;;;;;23.60;47.63;100344.54;106064;1259;74940;-75
2024/04/07 10:49:45;;;;;;;3.40;2.50;;;;;;;24.19;46.48;100346.09;105990;1260;68823;-76
2024/04/07 10:52:16;;;;;;;5.20;2.70;;;;;;;24.73;45.48;100346.82;106078;1259;72923;-77
2024/04/07 10:54:47;;;;;;;3.80;2.50;;;;;;;25.16;45.06;100345.09;106282;1254;61215;-77
2024/04/07 10:57:15;;;;;;;4.50;2.60;;;;;;;25.43;44.13;100344.34;105967;1261;61164;-78
2024/04/07 10:59:44;;;;;;;4.10;2.40;;;;;;;25.45;43.72;100345.73;105738;1254;76911;-76
2024/04/07 11:02:14;;;;;;;6.40;2.70;;;;;;;25.18;43.47;100348.64;105883;1264;70479;-77
2024/04/07 11:04:42;;;;;;;4.70;2.70;;;;;;;24.73;43.89;100349.60;105855;1259;72707;-74
2024/04/07 11:07:10;;;;;;;5.50;3.40;;;;;;;24.26;44.40;100357.19;105663;1254;61251;-74
2024/04/07 11:09:39;;;;;;;5.20;2.90;;;;;;;23.82;44.75;100363.88;105565;1257;186576;-74
2024/04/07 11:14:29;;;;;;;3.60;2.80;;;;;;;23.02;45.91;100364.92;102787;1292;603028;-75
2024/04/07 11:17:04;;;;;;;6.00;3.10;;;;;;;22.58;46.70;100370.72;105181;1267;60304;-76
2024/04/07 11:19:33;;;;;;;3.10;2.50;;;;;;;22.19;47.28;100380.16;104963;1273;59653;-72
2024/04/07 11:22:01;;;;;;;4.60;3.00;;;;;;;21.94;47.98;100376.24;105029;1266;73152;-75
2024/04/07 11:24:28;;;;;;;4.30;3.10;;;;;;;21.68;48.38;100377.02;104884;1265;70157;-77
2024/04/07 11:26:58;;;;;;;6.00;2.70;;;;;;;21.45;48.77;100379.80;104912;1269;181690;-78
2024/04/07 11:29:27;;;;;;;5.40;3.00;;;;;;;21.29;49.07;100375.66;105141;1264;61641;-76